createdAt,value
2022-08-28T00:00:00.865Z,0.129
2022-08-28T00:05:01.062Z,0.127
2022-08-28T00:10:00.995Z,0.126
2022-08-28T00:15:00.882Z,0.135
2022-08-28T00:20:00.935Z,0.176
2022-08-28T00:25:00.894Z,0.178
2022-08-28T00:30:01.065Z,0.18
2022-08-28T00:35:00.833Z,0.14100000000000001
2022-08-28T00:40:00.985Z,0.132
2022-08-28T00:45:00.917Z,0.1
2022-08-28T00:50:00.930Z,0.12
2022-08-28T00:55:01.095Z,0.145
2022-08-28T01:00:00.901Z,0.166
2022-08-28T01:05:01.011Z,0.194
2022-08-28T01:10:00.904Z,0.194
2022-08-28T01:15:00.959Z,0.192
2022-08-28T01:20:01.104Z,0.147
2022-08-28T01:25:00.916Z,0.139
2022-08-28T01:30:01.072Z,0.133
2022-08-28T01:35:00.945Z,0.098
2022-08-28T01:40:01.013Z,0.124
2022-08-28T01:45:01.018Z,0.164
2022-08-28T01:50:00.999Z,0.188
2022-08-28T01:55:01.141Z,0.193
2022-08-28T02:00:00.954Z,0.188
2022-08-28T02:05:00.966Z,0.146
2022-08-28T02:10:01.016Z,0.14400000000000002
2022-08-28T02:15:01.005Z,0.145
2022-08-28T02:20:01.210Z,0.146
2022-08-28T02:25:00.972Z,0.145
2022-08-28T02:30:01.002Z,0.116
2022-08-28T02:35:00.965Z,0.177
2022-08-28T02:40:01.070Z,0.17400000000000002
2022-08-28T02:45:01.207Z,0.158
2022-08-28T02:50:01.055Z,0.125
2022-08-28T02:55:00.997Z,0.127
2022-08-28T03:00:01.100Z,0.131
2022-08-28T03:05:01.026Z,0.132
2022-08-28T03:10:01.171Z,0.13
2022-08-28T03:15:01.123Z,0.181
2022-08-28T03:20:01.070Z,0.131
2022-08-28T03:25:01.014Z,0.181
2022-08-28T03:30:01.021Z,0.169
2022-08-28T03:35:01.402Z,0.145
2022-08-28T03:40:01.090Z,0.14300000000000002
2022-08-28T03:45:01.078Z,0.147
2022-08-28T03:50:01.317Z,0.08700000000000001
2022-08-28T03:55:01.052Z,0
2022-08-28T04:00:01.100Z,0.054
2022-08-28T04:05:01.047Z,0.187
2022-08-28T04:10:01.061Z,0.129
2022-08-28T04:15:01.265Z,0.148
2022-08-28T04:20:01.185Z,0.125
2022-08-28T04:25:01.108Z,32.811
2022-08-28T04:30:01.083Z,45.952
2022-08-28T04:35:01.091Z,52.428000000000004
2022-08-28T04:40:01.277Z,90.785
2022-08-28T04:45:01.118Z,121.538
2022-08-28T04:50:01.085Z,144.50900000000001
2022-08-28T04:55:01.077Z,152.913
2022-08-28T05:00:01.226Z,148.172
2022-08-28T05:05:01.303Z,164.085
2022-08-28T05:10:01.108Z,188.326
2022-08-28T05:15:01.190Z,200.005
2022-08-28T05:20:01.276Z,223.892
2022-08-28T05:25:01.129Z,295.625
2022-08-28T05:30:02.055Z,332.081
2022-08-28T05:35:01.169Z,357.821
2022-08-28T05:40:01.180Z,361.59000000000003
2022-08-28T05:45:01.276Z,420.002
2022-08-28T05:50:01.222Z,517.779
2022-08-28T05:55:01.312Z,686.53
2022-08-28T06:00:01.202Z,856.317
2022-08-28T06:05:01.171Z,932.87
2022-08-28T06:10:01.190Z,616.184
2022-08-28T06:15:01.147Z,731.98
2022-08-28T06:20:01.384Z,792.814
2022-08-28T06:25:01.177Z,715.756
2022-08-28T06:30:01.207Z,1279.038
2022-08-28T06:35:01.207Z,1582.699
2022-08-28T06:40:01.227Z,837.095
2022-08-28T06:45:01.393Z,980.092
2022-08-28T06:50:01.240Z,765.258
2022-08-28T06:55:01.208Z,819.914
2022-08-28T07:00:01.205Z,764.065
2022-08-28T07:05:01.217Z,732.393
2022-08-28T07:10:01.464Z,1003.446
2022-08-28T07:15:01.264Z,1245.746
2022-08-28T07:20:01.371Z,910.739
2022-08-28T07:25:01.241Z,1118.549
2022-08-28T07:30:01.251Z,563.081
2022-08-28T07:35:01.512Z,1529.317
2022-08-28T07:40:01.316Z,1303.769
2022-08-28T07:45:01.302Z,1722.8700000000001
2022-08-28T07:50:01.246Z,860.1700000000001
2022-08-28T07:55:01.251Z,1009.5930000000001
2022-08-28T08:00:01.437Z,1077.358
2022-08-28T08:05:01.389Z,1947.797
2022-08-28T08:10:01.272Z,1491.363
2022-08-28T08:15:01.317Z,3776.9210000000003
2022-08-28T08:20:01.328Z,4096.571
2022-08-28T08:25:01.589Z,3072.607
2022-08-28T08:30:01.289Z,1654.477
2022-08-28T08:35:01.295Z,2233.642
2022-08-28T08:40:01.362Z,3957.3140000000003
2022-08-28T08:45:01.336Z,2241.766
2022-08-28T08:50:01.530Z,3071.926
2022-08-28T08:55:01.311Z,2884.442
2022-08-28T09:00:01.354Z,4123.973
2022-08-28T09:05:01.347Z,2763.5480000000002
2022-08-28T09:10:01.358Z,3395.938
2022-08-28T09:15:01.525Z,3173.324
2022-08-28T09:20:01.325Z,4012.215
2022-08-28T09:25:01.356Z,2344.772
2022-08-28T09:30:02.516Z,3712.744
2022-08-28T09:35:01.361Z,5500.935
2022-08-28T09:40:01.590Z,3448.031
2022-08-28T09:45:01.383Z,3372.687
2022-08-28T09:50:01.419Z,2285.668
2022-08-28T09:55:01.351Z,5704.8640000000005
2022-08-28T10:00:01.352Z,7323.837
2022-08-28T10:05:01.518Z,4102.505
2022-08-28T10:10:01.417Z,2711.998
2022-08-28T10:15:01.404Z,3870.7380000000003
2022-08-28T10:20:01.431Z,4293.153
2022-08-28T10:25:01.449Z,2121.3540000000003
2022-08-28T10:30:06.023Z,1992.636
2022-08-28T10:35:01.446Z,1332.861
2022-08-28T10:40:01.515Z,1127.888
2022-08-28T10:45:01.398Z,1118.002
2022-08-28T10:50:01.450Z,2149.7980000000002
2022-08-28T10:55:01.599Z,1991.6960000000001
2022-08-28T11:00:01.450Z,2658.698
2022-08-28T11:05:01.512Z,2548.734
2022-08-28T11:10:01.438Z,1353.2730000000001
2022-08-28T11:15:01.582Z,949.394
2022-08-28T11:20:01.487Z,3144.271
2022-08-28T11:25:04.516Z,4753.608
2022-08-28T11:30:01.665Z,6018.001
2022-08-28T11:35:01.458Z,6304.686
2022-08-28T11:40:01.549Z,3855.4320000000002
2022-08-28T11:45:01.509Z,4966.961
2022-08-28T11:50:01.505Z,6783.959
2022-08-28T11:55:01.638Z,6876.412
2022-08-28T12:00:01.643Z,6667.93
2022-08-28T12:05:01.539Z,7501.12
2022-08-28T12:15:01.618Z,3731.775
2022-08-28T12:20:01.769Z,8329.449
2022-08-28T12:25:01.509Z,3822.5480000000002
2022-08-28T12:30:01.721Z,3265.987
2022-08-28T12:35:01.518Z,5154.779
2022-08-28T12:40:01.554Z,5229.169
2022-08-28T12:45:01.539Z,3535.833
2022-08-28T12:50:01.613Z,3060.271
2022-08-28T12:55:01.710Z,4323.47
2022-08-28T13:00:01.509Z,3857.5640000000003
2022-08-28T13:05:01.627Z,4543.737
2022-08-28T13:10:01.514Z,4805.626
2022-08-28T13:15:01.596Z,5588.79
2022-08-28T13:20:01.514Z,3749.3920000000003
2022-08-28T13:25:01.566Z,4057.567
2022-08-28T13:30:01.778Z,5017.111
2022-08-28T13:35:01.574Z,6136.863
2022-08-28T13:40:04.387Z,6724.0650000000005
2022-08-28T13:45:01.611Z,6576.179
2022-08-28T13:50:01.609Z,6506.642
2022-08-28T13:55:01.567Z,6791.45
2022-08-28T14:00:01.575Z,6302.924
2022-08-28T14:05:01.739Z,4304.4400000000005
2022-08-28T14:10:01.588Z,2333.251
2022-08-28T14:15:01.816Z,5710.139
2022-08-28T14:20:01.581Z,2959.442
2022-08-28T14:25:01.595Z,4487.831
2022-08-28T14:30:01.681Z,3018.369
2022-08-28T14:35:01.614Z,1522.6680000000001
2022-08-28T14:40:01.840Z,5277.735
2022-08-28T14:45:01.657Z,5266.487
2022-08-28T14:50:01.912Z,1791.287
2022-08-28T14:55:01.622Z,1351.125
2022-08-28T15:00:01.606Z,4629.917
2022-08-28T15:05:01.635Z,4964.868
2022-08-28T15:10:01.660Z,3625.905
2022-08-28T15:15:01.671Z,401.462
2022-08-28T15:20:01.671Z,407.244
2022-08-28T15:25:01.880Z,736.982
2022-08-28T15:30:01.961Z,1420.339
2022-08-28T15:35:01.686Z,2375.326
2022-08-28T15:40:01.693Z,2658.907
2022-08-28T15:45:01.722Z,2890.364
2022-08-28T15:50:02.008Z,1623.213
2022-08-28T15:55:01.709Z,3300.697
2022-08-28T16:00:01.891Z,1064.994
2022-08-28T16:05:01.797Z,464.095
2022-08-28T16:10:01.712Z,54.801
2022-08-28T16:15:01.716Z,118.21000000000001
2022-08-28T16:20:01.698Z,486.039
2022-08-28T16:25:01.907Z,1869.832
2022-08-28T16:30:01.722Z,1405.012
2022-08-28T16:35:01.850Z,1472.16
2022-08-28T16:40:01.828Z,389.826
2022-08-28T16:45:01.836Z,253.638
2022-08-28T16:50:01.734Z,190.77
2022-08-28T16:55:01.747Z,120.733
2022-08-28T17:00:01.904Z,94.999
2022-08-28T17:05:01.773Z,32.234
2022-08-28T17:10:01.747Z,13.464
2022-08-28T17:15:01.762Z,40.93
2022-08-28T17:20:02.438Z,40.547000000000004
2022-08-28T17:25:01.919Z,3.8160000000000003
2022-08-28T17:30:01.831Z,0.293
2022-08-28T17:35:01.786Z,0
2022-08-28T17:40:01.828Z,15.767
2022-08-28T17:45:01.821Z,37.558
2022-08-28T17:50:01.983Z,27.39
2022-08-28T17:55:01.775Z,21.274
2022-08-28T18:00:01.880Z,8.723
2022-08-28T18:05:01.856Z,0.006
2022-08-28T18:10:01.849Z,0.127
2022-08-28T18:15:01.808Z,0.129
2022-08-28T18:20:01.830Z,0.13
2022-08-28T18:25:01.967Z,0.127
2022-08-28T18:30:01.812Z,0.129
2022-08-28T18:35:01.821Z,0.094
2022-08-28T18:40:01.877Z,0.178
2022-08-28T18:45:01.836Z,0.177
2022-08-28T18:50:02.937Z,0.125
2022-08-28T18:55:01.877Z,0
2022-08-28T19:00:01.820Z,0.115
2022-08-28T19:05:01.817Z,0.14100000000000001
2022-08-28T19:10:01.823Z,0.125
2022-08-28T19:15:01.963Z,0.123
2022-08-28T19:20:01.854Z,0.07200000000000001
2022-08-28T19:25:01.893Z,0.108
2022-08-28T19:30:01.860Z,1.337
2022-08-28T19:35:01.912Z,3.5220000000000002
2022-08-28T19:40:02.110Z,2.584
2022-08-28T19:45:01.938Z,0.438
2022-08-28T19:50:01.905Z,0.364
2022-08-28T19:55:01.873Z,0.137
2022-08-28T20:00:01.969Z,0.145
2022-08-28T20:05:02.135Z,0.17200000000000001
2022-08-28T20:10:01.914Z,0.202
2022-08-28T20:15:03.566Z,0.195
2022-08-28T20:20:03.379Z,0.201
2022-08-28T20:25:01.908Z,0.321
2022-08-28T20:30:04.667Z,0.196
2022-08-28T20:35:01.988Z,0.125
2022-08-28T20:40:04.475Z,0.137
2022-08-28T20:45:01.902Z,0.431
2022-08-28T20:50:01.915Z,0.135
2022-08-28T20:55:02.119Z,0.145
2022-08-28T21:00:05.397Z,0.145
2022-08-28T21:05:02.173Z,0.13
2022-08-28T21:10:03.918Z,0.098
2022-08-28T21:15:01.989Z,0.097
2022-08-28T21:20:02.831Z,0.073
2022-08-28T21:25:01.934Z,0.109
2022-08-28T21:30:02.204Z,0.11
2022-08-28T21:35:01.964Z,0.159
2022-08-28T21:40:02.324Z,0.158
2022-08-28T21:45:02.028Z,0.156
2022-08-28T21:50:02.065Z,0.114
2022-08-28T21:55:02.145Z,0.109
2022-08-28T22:00:02.018Z,0.095
2022-08-28T22:05:02.007Z,0.078
2022-08-28T22:10:01.988Z,0.075
2022-08-28T22:15:02.228Z,0.113
2022-08-28T22:20:02.362Z,0.154
2022-08-28T22:25:02.110Z,0.117
2022-08-28T22:30:02.125Z,0.169
2022-08-28T22:35:02.035Z,0.14300000000000002
2022-08-28T22:40:02.309Z,0.128
2022-08-28T22:45:02.026Z,0.133
2022-08-28T22:50:02.108Z,0.14
2022-08-28T22:55:02.185Z,0.14
2022-08-28T23:00:02.303Z,0.162
2022-08-28T23:05:02.207Z,1.149
2022-08-28T23:10:02.250Z,1.327
2022-08-28T23:15:02.081Z,1.248
2022-08-28T23:20:02.341Z,1.298
2022-08-28T23:25:02.057Z,1.316
2022-08-28T23:30:02.077Z,1.328
2022-08-28T23:35:02.057Z,1.311
2022-08-28T23:40:02.085Z,1.304
2022-08-28T23:45:02.166Z,1.23
2022-08-28T23:50:02.090Z,1.221
2022-08-28T23:55:02.120Z,1.22
